Terminal Aerodrome Forecast
Issued by NWS

Home | Current Version | Previous Version | Text Only | Print | Product List | Glossary On
Versions: 1 2 3 4 5 6 7 8 9 10 11 12 13 14 15 16 17 18 19 20 21 22
000
FTUS45 KBOI 250520
TAFTWF
TAF
KTWF 250520Z 2506/2606 16006KT P6SM BKN120
     FM251200 14007KT P6SM -SHRA BKN050 OVC100
     FM251800 24015KT P6SM -RA BKN040 OVC080
     FM260000 26010KT P6SM -SHRA VCTS SCT050CB BKN100=

USA.gov is the U.S. government's official web portal to all federal, state and local government web resources and services.